Time;durP1;ratioP1;P1;durP2;ratioP2;P2;SDS_P1;SDS_P2;PMS_P1;PMS_P2;Temp;Humidity;BMP_temperature;BMP_pressure;BME280_temperature;BME280_humidity;BME280_pressure;Samples;Min_cycle;Max_cycle;Signal;HPM_P1;HPM_P2
2022/11/02 00:00:26;;;;;;;;;;;;;;;;;;5116982;27;19931;-54
2022/11/02 00:02:51;;;;;;;;;;;;;;;;;;5116006;27;19922;-54
2022/11/02 00:05:22;;;;;;;;;;;;;;;;;;5116566;27;19915;-54
2022/11/02 00:07:47;;;;;;;;;;;;;;;;;;5123323;27;19919;-54
2022/11/02 00:10:12;;;;;;;;;;;;;;;;;;5120137;27;19912;-54
2022/11/02 00:12:37;;;;;;;;;;;;;;;;;;5131299;27;20326;-54
2022/11/02 00:15:02;;;;;;;;;;;;;;;;;;5120437;27;19964;-53
2022/11/02 00:17:28;;;;;;;;;;;;;;;;;;5112206;27;19912;-54
2022/11/02 00:19:53;;;;;;;;;;;;;;;;;;5117970;27;19911;-54
2022/11/02 00:22:18;;;;;;;;;;;;;;;;;;5115487;27;19923;-53
2022/11/02 00:24:43;;;;;;;;;;;;;;;;;;5112154;27;19911;-53
2022/11/02 00:27:08;;;;;;;;;;;;;;;;;;5116504;27;20377;-53
2022/11/02 00:29:33;;;;;;;;;;;;;;;;;;5128835;27;19991;-53
2022/11/02 00:31:59;;;;;;;;;;;;;;;;;;5114922;27;20020;-54
2022/11/02 00:34:24;;;;;;;;;;;;;;;;;;5118797;27;19951;-53
2022/11/02 00:36:49;;;;;;;;;;;;;;;;;;5129488;27;20380;-52
2022/11/02 00:39:14;;;;;;;;;;;;;;;;;;5126491;27;19972;-53
2022/11/02 00:41:39;;;;;;;;;;;;;;;;;;5127439;27;19946;-53
2022/11/02 00:44:04;;;;;;;;;;;;;;;;;;5116761;27;20361;-52
2022/11/02 00:46:29;;;;;;;;;;;;;;;;;;5113642;27;19912;-53
2022/11/02 00:48:54;;;;;;;;;;;;;;;;;;5111232;27;19953;-53
2022/11/02 00:51:19;;;;;;;;;;;;;;;;;;5117754;27;19938;-53
2022/11/02 00:53:44;;;;;;;;;;;;;;;;;;5111204;27;19916;-53
2022/11/02 00:56:09;;;;;;;;;;;;;;;;;;5122895;27;20023;-53
2022/11/02 00:58:34;;;;;;;;;;;;;;;;;;5116318;27;19908;-52
2022/11/02 01:01:00;;;;;;;;;;;;;;;;;;5117604;27;20476;-53
2022/11/02 01:03:25;;;;;;;;;;;;;;;;;;5111462;27;19922;-53
2022/11/02 01:05:50;;;;;;;;;;;;;;;;;;5118367;27;19923;-53
2022/11/02 01:08:15;;;;;;;;;;;;;;;;;;5112236;27;19930;-53
2022/11/02 01:10:40;;;;;;;;;;;;;;;;;;5126777;27;20581;-53
2022/11/02 01:13:05;;;;;;;;;;;;;;;;;;5124392;27;19912;-54
2022/11/02 01:15:30;;;;;;;;;;;;;;;;;;5115469;27;19966;-53
2022/11/02 01:17:55;;;;;;;;;;;;;;;;;;5110676;28;19918;-53
2022/11/02 01:20:20;;;;;;;;;;;;;;;;;;5110922;28;19919;-53
2022/11/02 01:22:45;;;;;;;;;;;;;;;;;;5121313;27;19919;-53
2022/11/02 01:25:11;;;;;;;;;;;;;;;;;;5111428;27;19947;-53
2022/11/02 01:27:36;;;;;;;;;;;;;;;;;;5115000;27;19914;-53
2022/11/02 01:30:01;;;;;;;;;;;;;;;;;;5127505;27;20358;-52
2022/11/02 01:32:26;;;;;;;;;;;;;;;;;;5119078;27;19926;-53
2022/11/02 01:34:51;;;;;;;;;;;;;;;;;;5118478;27;19915;-53
2022/11/02 01:37:16;;;;;;;;;;;;;;;;;;5127121;27;19915;-53
2022/11/02 01:39:41;;;;;;;;;;;;;;;;;;5126784;27;19912;-53
2022/11/02 01:42:06;;;;;;;;;;;;;;;;;;5130841;27;19965;-52
2022/11/02 01:44:32;;;;;;;;;;;;;;;;;;5124159;27;19912;-53
2022/11/02 01:46:57;;;;;;;;;;;;;;;;;;5122555;27;19934;-51
2022/11/02 01:49:22;;;;;;;;;;;;;;;;;;5121910;27;20283;-52
2022/11/02 01:51:47;;;;;;;;;;;;;;;;;;5125947;27;19915;-53
2022/11/02 01:54:12;;;;;;;;;;;;;;;;;;5115468;28;19947;-52
2022/11/02 01:56:37;;;;;;;;;;;;;;;;;;5122788;28;19964;-53
2022/11/02 01:59:02;;;;;;;;;;;;;;;;;;5117955;28;19916;-52
2022/11/02 02:01:27;;;;;;;;;;;;;;;;;;5127168;28;20002;-53
2022/11/02 02:03:52;;;;;;;;;;;;;;;;;;5122848;28;20372;-53
2022/11/02 02:06:17;;;;;;;;;;;;;;;;;;5109962;28;19922;-53
2022/11/02 02:08:43;;;;;;;;;;;;;;;;;;5113469;28;19911;-52
2022/11/02 02:11:08;;;;;;;;;;;;;;;;;;5128386;28;19930;-53
2022/11/02 02:13:33;;;;;;;;;;;;;;;;;;5126181;28;19919;-53
2022/11/02 02:15:58;;;;;;;;;;;;;;;;;;5118691;28;19922;-53
2022/11/02 02:18:23;;;;;;;;;;;;;;;;;;5119548;28;20334;-53
2022/11/02 02:20:48;;;;;;;;;;;;;;;;;;5115248;28;19995;-53
2022/11/02 02:23:13;;;;;;;;;;;;;;;;;;5127939;28;19990;-54
2022/11/02 02:25:38;;;;;;;;;;;;;;;;;;5122810;28;19920;-54
2022/11/02 02:28:03;;;;;;;;;;;;;;;;;;5110373;28;19911;-53
2022/11/02 02:30:28;;;;;;;;;;;;;;;;;;5117032;28;19911;-54
2022/11/02 02:32:53;;;;;;;;;;;;;;;;;;5113358;28;19920;-54
2022/11/02 02:35:19;;;;;;;;;;;;;;;;;;5108859;28;20554;-52
2022/11/02 02:37:44;;;;;;;;;;;;;;;;;;5108786;28;20443;-53
2022/11/02 02:40:09;;;;;;;;;;;;;;;;;;5125683;28;19911;-54
2022/11/02 02:42:34;;;;;;;;;;;;;;;;;;5114514;28;20409;-54
2022/11/02 02:44:59;;;;;;;;;;;;;;;;;;5117781;28;19960;-54
2022/11/02 02:47:26;;;;;;;;;;;;;;;;;;5120792;28;19967;-54
2022/11/02 02:49:51;;;;;;;;;;;;;;;;;;5116264;28;20362;-53
2022/11/02 02:52:16;;;;;;;;;;;;;;;;;;5111463;27;20259;-53
2022/11/02 02:54:41;;;;;;;;;;;;;;;;;;5123110;27;19919;-53
2022/11/02 02:57:06;;;;;;;;;;;;;;;;;;5125448;27;20064;-52
2022/11/02 02:59:32;;;;;;;;;;;;;;;;;;5117823;27;19912;-53
2022/11/02 03:01:57;;;;;;;;;;;;;;;;;;5118963;27;20366;-53
2022/11/02 03:04:22;;;;;;;;;;;;;;;;;;5114707;27;20417;-52
2022/11/02 03:06:47;;;;;;;;;;;;;;;;;;5118348;27;19918;-52
2022/11/02 03:09:12;;;;;;;;;;;;;;;;;;5119632;27;19914;-53
2022/11/02 03:11:37;;;;;;;;;;;;;;;;;;5131023;27;19912;-53
2022/11/02 03:14:02;;;;;;;;;;;;;;;;;;5125028;27;20286;-53
2022/11/02 03:16:27;;;;;;;;;;;;;;;;;;5131863;27;19933;-54
2022/11/02 03:18:53;;;;;;;;;;;;;;;;;;5113127;27;19919;-56
2022/11/02 03:21:18;;;;;;;;;;;;;;;;;;5123102;27;20370;-53
2022/11/02 03:23:43;;;;;;;;;;;;;;;;;;5127804;27;19922;-53
2022/11/02 03:26:08;;;;;;;;;;;;;;;;;;5122389;27;19912;-53
2022/11/02 03:28:33;;;;;;;;;;;;;;;;;;5118830;27;20424;-52
2022/11/02 03:30:58;;;;;;;;;;;;;;;;;;5118354;27;20374;-53
2022/11/02 03:33:23;;;;;;;;;;;;;;;;;;5127916;27;19922;-54
2022/11/02 03:35:48;;;;;;;;;;;;;;;;;;5121608;27;20033;-53
2022/11/02 03:38:13;;;;;;;;;;;;;;;;;;5126130;27;19929;-53
2022/11/02 03:40:38;;;;;;;;;;;;;;;;;;5115247;27;20003;-53
2022/11/02 03:43:04;;;;;;;;;;;;;;;;;;5118185;27;19912;-59
2022/11/02 03:45:29;;;;;;;;;;;;;;;;;;5115979;27;19972;-57
2022/11/02 03:47:54;;;;;;;;;;;;;;;;;;5131113;27;19919;-55
2022/11/02 03:50:19;;;;;;;;;;;;;;;;;;5112808;27;19916;-54
2022/11/02 03:52:44;;;;;;;;;;;;;;;;;;5115026;27;20397;-54
2022/11/02 03:55:09;;;;;;;;;;;;;;;;;;5115301;27;19911;-54
2022/11/02 03:57:34;;;;;;;;;;;;;;;;;;5120399;27;19912;-54
2022/11/02 04:00:00;;;;;;;;;;;;;;;;;;5123956;27;19930;-54
2022/11/02 04:02:25;;;;;;;;;;;;;;;;;;5129306;27;20423;-54
2022/11/02 04:04:50;;;;;;;;;;;;;;;;;;5128486;27;19911;-53
2022/11/02 04:07:15;;;;;;;;;;;;;;;;;;5122055;27;19919;-54
2022/11/02 04:09:40;;;;;;;;;;;;;;;;;;5125092;27;19915;-53
2022/11/02 04:14:49;;;;;;;;;;;;;;;;;;5123135;27;19919;-53
2022/11/02 04:19:58;;;;;;;;;;;;;;;;;;5121052;27;19919;-54
2022/11/02 04:25:19;;;;;;;;;;;;;;;;;;5116096;27;20365;-52
2022/11/02 04:27:45;;;;;;;;;;;;;;;;;;5114123;27;19958;-52
2022/11/02 04:30:10;;;;;;;;;;;;;;;;;;5123294;27;20474;-52
2022/11/02 04:35:18;;;;;;;;;;;;;;;;;;5116269;27;19962;-52
2022/11/02 04:40:27;;;;;;;;;;;;;;;;;;5116505;27;19968;-53
2022/11/02 04:42:52;;;;;;;;;;;;;;;;;;5123166;27;19911;-52
2022/11/02 04:45:17;;;;;;;;;;;;;;;;;;5130229;27;19943;-52
2022/11/02 04:47:42;;;;;;;;;;;;;;;;;;5123856;27;19912;-52
2022/11/02 04:50:07;;;;;;;;;;;;;;;;;;5115450;27;19966;-53
2022/11/02 04:52:33;;;;;;;;;;;;;;;;;;5118570;27;19923;-52
2022/11/02 04:54:58;;;;;;;;;;;;;;;;;;5110623;28;19911;-52
2022/11/02 04:57:23;;;;;;;;;;;;;;;;;;5140458;27;19923;-53
2022/11/02 04:59:48;;;;;;;;;;;;;;;;;;5121194;27;20009;-58
2022/11/02 05:02:13;;;;;;;;;;;;;;;;;;5125986;27;20006;-52
2022/11/02 05:04:38;;;;;;;;;;;;;;;;;;5143503;27;19960;-50
2022/11/02 05:07:06;;;;;;;;;;;;;;;;;;5135673;27;19923;-53
2022/11/02 05:09:31;;;;;;;;;;;;;;;;;;5138352;27;20336;-53
2022/11/02 05:11:56;;;;;;;;;;;;;;;;;;5128966;27;20328;-53
2022/11/02 05:14:22;;;;;;;;;;;;;;;;;;5130678;27;19920;-53
2022/11/02 05:16:47;;;;;;;;;;;;;;;;;;5119110;27;19934;-53
2022/11/02 05:19:12;;;;;;;;;;;;;;;;;;5124830;27;19911;-53
2022/11/02 05:21:37;;;;;;;;;;;;;;;;;;5116466;27;20001;-53
2022/11/02 05:24:02;;;;;;;;;;;;;;;;;;5124179;27;20022;-53
2022/11/02 05:26:27;;;;;;;;;;;;;;;;;;5113716;27;19920;-51
2022/11/02 05:28:52;;;;;;;;;;;;;;;;;;5127016;27;19918;-52
2022/11/02 05:31:17;;;;;;;;;;;;;;;;;;5116390;27;19948;-53
2022/11/02 05:33:42;;;;;;;;;;;;;;;;;;5119793;27;19920;-52
2022/11/02 05:36:07;;;;;;;;;;;;;;;;;;5107167;27;19916;-52
2022/11/02 05:38:33;;;;;;;;;;;;;;;;;;5123488;27;19954;-53
2022/11/02 05:40:58;;;;;;;;;;;;;;;;;;5121968;27;20356;-52
2022/11/02 05:43:23;;;;;;;;;;;;;;;;;;5112694;27;20002;-52
2022/11/02 05:45:48;;;;;;;;;;;;;;;;;;5128321;27;19911;-53
2022/11/02 05:48:13;;;;;;;;;;;;;;;;;;5111688;27;19954;-53
2022/11/02 05:50:38;;;;;;;;;;;;;;;;;;5107343;28;20358;-52
2022/11/02 05:53:03;;;;;;;;;;;;;;;;;;5109300;27;19919;-53
2022/11/02 05:56:25;;;;;;;;;;;;;;;;;;5090065;27;21623;-48
2022/11/02 05:58:51;;;;;;;;;;;;;;;;;;5096573;28;20362;-49
2022/11/02 06:01:16;;;;;;;;;;;;;;;;;;5093193;28;19912;-49
2022/11/02 06:03:41;;;;;;;;;;;;;;;;;;5077204;28;19912;-48
2022/11/02 06:06:06;;;;;;;;;;;;;;;;;;5076431;28;20605;-48
2022/11/02 06:08:32;;;;;;;;;;;;;;;;;;5091431;28;19919;-48
2022/11/02 06:10:57;;;;;;;;;;;;;;;;;;5079806;28;19908;-48
2022/11/02 06:13:22;;;;;;;;;;;;;;;;;;5064083;28;20441;-49
2022/11/02 06:15:47;;;;;;;;;;;;;;;;;;5076980;28;19908;-49
2022/11/02 06:18:12;;;;;;;;;;;;;;;;;;5081442;28;20322;-49
2022/11/02 06:20:38;;;;;;;;;;;;;;;;;;5077932;28;19915;-49
2022/11/02 06:23:03;;;;;;;;;;;;;;;;;;5080323;28;20940;-49
2022/11/02 06:25:28;;;;;;;;;;;;;;;;;;5084571;28;19912;-50
2022/11/02 06:27:54;;;;;;;;;;;;;;;;;;5087641;28;19912;-48
2022/11/02 06:30:20;;;;;;;;;;;;;;;;;;5101136;28;20354;-47
2022/11/02 06:32:45;;;;;;;;;;;;;;;;;;5087396;28;20294;-48
2022/11/02 06:35:11;;;;;;;;;;;;;;;;;;5087755;28;19965;-49
2022/11/02 06:37:36;;;;;;;;;;;;;;;;;;5085506;28;19950;-49
2022/11/02 06:40:01;;;;;;;;;;;;;;;;;;5087599;28;19916;-48
2022/11/02 06:42:26;;;;;;;;;;;;;;;;;;5086363;28;20298;-49
2022/11/02 06:44:51;;;;;;;;;;;;;;;;;;5083063;28;19919;-50
2022/11/02 06:47:16;;;;;;;;;;;;;;;;;;5076333;28;20034;-49
2022/11/02 06:49:41;;;;;;;;;;;;;;;;;;5086713;28;19991;-49
2022/11/02 06:52:06;;;;;;;;;;;;;;;;;;5079269;28;19908;-49
2022/11/02 06:54:31;;;;;;;;;;;;;;;;;;5084225;28;20423;-50
2022/11/02 06:56:56;;;;;;;;;;;;;;;;;;5084493;28;19988;-49
2022/11/02 06:59:22;;;;;;;;;;;;;;;;;;5085746;28;19948;-50
2022/11/02 07:01:52;;;;;;;;;;;;;;;;;;5085656;28;20437;-50
2022/11/02 07:04:17;;;;;;;;;;;;;;;;;;5082460;28;19969;-50
2022/11/02 07:06:42;;;;;;;;;;;;;;;;;;5072663;28;19916;-52
2022/11/02 07:09:08;;;;;;;;;;;;;;;;;;5070973;28;19904;-50
2022/11/02 07:11:33;;;;;;;;;;;;;;;;;;5054379;28;20302;-50
2022/11/02 07:13:58;;;;;;;;;;;;;;;;;;5062879;28;19954;-50
2022/11/02 07:16:24;;;;;;;;;;;;;;;;;;5073417;28;19904;-50
2022/11/02 07:18:49;;;;;;;;;;;;;;;;;;5073415;28;20366;-49
2022/11/02 07:21:14;;;;;;;;;;;;;;;;;;5073201;28;19919;-50
2022/11/02 07:23:39;;;;;;;;;;;;;;;;;;5071124;28;20600;-50
2022/11/02 07:26:04;;;;;;;;;;;;;;;;;;5073186;28;19908;-50
2022/11/02 07:28:29;;;;;;;;;;;;;;;;;;5054709;28;19905;-50
2022/11/02 07:30:54;;;;;;;;;;;;;;;;;;5061837;28;19935;-49
2022/11/02 07:33:19;;;;;;;;;;;;;;;;;;5069308;28;20268;-50
2022/11/02 07:35:44;;;;;;;;;;;;;;;;;;5068892;28;20035;-50
2022/11/02 07:38:09;;;;;;;;;;;;;;;;;;5057261;28;19909;-50
2022/11/02 07:40:35;;;;;;;;;;;;;;;;;;5061966;28;19920;-48
2022/11/02 07:43:00;;;;;;;;;;;;;;;;;;5065199;28;19912;-50
2022/11/02 07:45:25;;;;;;;;;;;;;;;;;;5061623;28;19919;-49
2022/11/02 07:47:50;;;;;;;;;;;;;;;;;;5072789;28;20603;-50
2022/11/02 07:50:15;;;;;;;;;;;;;;;;;;5072160;28;19901;-50
2022/11/02 07:52:41;;;;;;;;;;;;;;;;;;5072209;28;20361;-50
2022/11/02 07:55:06;;;;;;;;;;;;;;;;;;5072510;28;19924;-48
2022/11/02 07:57:31;;;;;;;;;;;;;;;;;;5072077;28;19904;-49
2022/11/02 07:59:56;;;;;;;;;;;;;;;;;;5070852;28;20353;-48
2022/11/02 08:02:21;;;;;;;;;;;;;;;;;;5070805;28;19915;-50
2022/11/02 08:04:46;;;;;;;;;;;;;;;;;;5072828;28;19908;-50
2022/11/02 08:07:11;;;;;;;;;;;;;;;;;;5072116;28;19904;-49
2022/11/02 08:09:36;;;;;;;;;;;;;;;;;;5072360;28;19955;-49
2022/11/02 08:12:01;;;;;;;;;;;;;;;;;;5071745;28;19995;-49
2022/11/02 08:14:27;;;;;;;;;;;;;;;;;;5072034;28;19915;-50
2022/11/02 08:16:52;;;;;;;;;;;;;;;;;;5072212;28;19978;-48
2022/11/02 08:19:17;;;;;;;;;;;;;;;;;;5071423;28;19907;-48
2022/11/02 08:21:42;;;;;;;;;;;;;;;;;;5071951;28;20045;-49
2022/11/02 08:24:07;;;;;;;;;;;;;;;;;;5071152;28;19916;-48
2022/11/02 08:26:32;;;;;;;;;;;;;;;;;;5071651;28;20362;-48
2022/11/02 08:28:57;;;;;;;;;;;;;;;;;;5072044;28;19911;-48
2022/11/02 08:31:22;;;;;;;;;;;;;;;;;;5071339;28;19901;-48
2022/11/02 08:33:47;;;;;;;;;;;;;;;;;;5070951;28;19928;-48
2022/11/02 08:36:13;;;;;;;;;;;;;;;;;;5071833;28;19998;-49
2022/11/02 08:38:38;;;;;;;;;;;;;;;;;;5071624;28;19987;-49
2022/11/02 08:41:04;;;;;;;;;;;;;;;;;;5071734;28;19920;-48
2022/11/02 08:43:29;;;;;;;;;;;;;;;;;;5070965;28;19908;-49
2022/11/02 08:45:54;;;;;;;;;;;;;;;;;;5071754;28;19911;-49
2022/11/02 08:48:19;;;;;;;;;;;;;;;;;;5071543;28;19900;-49
2022/11/02 08:50:44;;;;;;;;;;;;;;;;;;5071691;28;19944;-50
2022/11/02 08:53:09;;;;;;;;;;;;;;;;;;5070631;28;20025;-50
2022/11/02 08:55:34;;;;;;;;;;;;;;;;;;5071140;28;20325;-49
2022/11/02 08:57:59;;;;;;;;;;;;;;;;;;5071390;28;19905;-50
2022/11/02 09:00:24;;;;;;;;;;;;;;;;;;5071540;28;19904;-50
2022/11/02 09:02:49;;;;;;;;;;;;;;;;;;5070415;28;19995;-50
2022/11/02 09:05:14;;;;;;;;;;;;;;;;;;5071352;28;19904;-50
2022/11/02 09:07:40;;;;;;;;;;;;;;;;;;5069668;28;19912;-50
2022/11/02 09:10:06;;;;;;;;;;;;;;;;;;5071320;28;19908;-50
2022/11/02 09:12:31;;;;;;;;;;;;;;;;;;5069244;28;19991;-50
2022/11/02 09:14:56;;;;;;;;;;;;;;;;;;5070700;28;19990;-50
2022/11/02 09:17:21;;;;;;;;;;;;;;;;;;5070999;28;20061;-49
2022/11/02 09:19:46;;;;;;;;;;;;;;;;;;5071182;28;19904;-49
2022/11/02 09:22:11;;;;;;;;;;;;;;;;;;5070959;28;19989;-52
2022/11/02 09:24:36;;;;;;;;;;;;;;;;;;5068584;28;19908;-53
2022/11/02 09:27:02;;;;;;;;;;;;;;;;;;5071108;28;20355;-51
2022/11/02 09:29:27;;;;;;;;;;;;;;;;;;5070700;28;19946;-64
2022/11/02 09:31:52;;;;;;;;;;;;;;;;;;5071027;28;19912;-54
2022/11/02 09:34:17;;;;;;;;;;;;;;;;;;5069973;28;19951;-51
2022/11/02 09:36:42;;;;;;;;;;;;;;;;;;5070930;28;19915;-50
2022/11/02 09:39:07;;;;;;;;;;;;;;;;;;5070285;28;19908;-49
2022/11/02 09:41:32;;;;;;;;;;;;;;;;;;5070567;28;20374;-50
2022/11/02 09:43:57;;;;;;;;;;;;;;;;;;5070022;28;19982;-50
2022/11/02 09:46:22;;;;;;;;;;;;;;;;;;5070679;28;19904;-50
2022/11/02 09:48:47;;;;;;;;;;;;;;;;;;5070644;28;20255;-50
2022/11/02 09:51:12;;;;;;;;;;;;;;;;;;5068862;28;19915;-49
2022/11/02 09:53:37;;;;;;;;;;;;;;;;;;5069761;28;19961;-49
2022/11/02 09:56:03;;;;;;;;;;;;;;;;;;5070473;28;19920;-50
2022/11/02 09:58:28;;;;;;;;;;;;;;;;;;5070465;28;20320;-50
2022/11/02 10:00:53;;;;;;;;;;;;;;;;;;5069024;28;19924;-50
2022/11/02 10:03:19;;;;;;;;;;;;;;;;;;5070075;28;20002;-50
2022/11/02 10:05:44;;;;;;;;;;;;;;;;;;5070648;28;19915;-50
2022/11/02 10:08:09;;;;;;;;;;;;;;;;;;5070317;28;19911;-49
2022/11/02 10:10:34;;;;;;;;;;;;;;;;;;5070349;28;20070;-50
2022/11/02 10:12:59;;;;;;;;;;;;;;;;;;5069419;28;19908;-50
2022/11/02 10:15:24;;;;;;;;;;;;;;;;;;5070610;28;19908;-50
2022/11/02 10:17:49;;;;;;;;;;;;;;;;;;5070274;28;19904;-48
2022/11/02 10:20:14;;;;;;;;;;;;;;;;;;5070467;28;20266;-50
2022/11/02 10:22:40;;;;;;;;;;;;;;;;;;5069368;28;19908;-54
2022/11/02 10:25:05;;;;;;;;;;;;;;;;;;5070460;28;19992;-48
2022/11/02 10:27:30;;;;;;;;;;;;;;;;;;5070242;28;19901;-49
2022/11/02 10:29:55;;;;;;;;;;;;;;;;;;5068357;28;19966;-50
2022/11/02 10:32:20;;;;;;;;;;;;;;;;;;5068829;28;20367;-50
2022/11/02 10:34:45;;;;;;;;;;;;;;;;;;5070258;28;19916;-50
2022/11/02 10:37:10;;;;;;;;;;;;;;;;;;5070147;28;19908;-50
2022/11/02 10:39:35;;;;;;;;;;;;;;;;;;5069868;28;19900;-50
2022/11/02 10:42:00;;;;;;;;;;;;;;;;;;5072370;28;19908;-51
2022/11/02 10:44:25;;;;;;;;;;;;;;;;;;5073488;28;19915;-50
2022/11/02 10:46:51;;;;;;;;;;;;;;;;;;5072718;28;20265;-50
2022/11/02 10:49:16;;;;;;;;;;;;;;;;;;5072759;28;20395;-50
2022/11/02 10:51:41;;;;;;;;;;;;;;;;;;5073595;28;19908;-51
2022/11/02 10:54:06;;;;;;;;;;;;;;;;;;5073671;28;19911;-50
2022/11/02 10:56:31;;;;;;;;;;;;;;;;;;5073576;28;19916;-50
2022/11/02 10:58:56;;;;;;;;;;;;;;;;;;5073502;28;19926;-51
2022/11/02 11:01:21;;;;;;;;;;;;;;;;;;5073171;28;19969;-51
2022/11/02 11:03:46;;;;;;;;;;;;;;;;;;5073625;28;20351;-51
2022/11/02 11:06:11;;;;;;;;;;;;;;;;;;5072375;28;19912;-50
2022/11/02 11:08:37;;;;;;;;;;;;;;;;;;5073028;28;19947;-50
2022/11/02 11:11:02;;;;;;;;;;;;;;;;;;5072548;28;20252;-50
2022/11/02 11:13:27;;;;;;;;;;;;;;;;;;5073346;28;19927;-51
2022/11/02 11:15:52;;;;;;;;;;;;;;;;;;5072583;28;19912;-51
2022/11/02 11:18:17;;;;;;;;;;;;;;;;;;5073450;28;19998;-50
2022/11/02 11:20:42;;;;;;;;;;;;;;;;;;5072227;28;20416;-51
2022/11/02 11:23:08;;;;;;;;;;;;;;;;;;5072950;28;19909;-51
2022/11/02 11:25:33;;;;;;;;;;;;;;;;;;5073288;28;19907;-48
2022/11/02 11:27:58;;;;;;;;;;;;;;;;;;5073106;28;19970;-50
2022/11/02 11:30:23;;;;;;;;;;;;;;;;;;5068858;28;19947;-50
2022/11/02 11:32:48;;;;;;;;;;;;;;;;;;5072280;28;20282;-50
2022/11/02 11:35:14;;;;;;;;;;;;;;;;;;5073212;28;19915;-50
2022/11/02 11:37:39;;;;;;;;;;;;;;;;;;5072436;28;19999;-49
2022/11/02 11:40:04;;;;;;;;;;;;;;;;;;5072769;28;20350;-49
2022/11/02 11:42:29;;;;;;;;;;;;;;;;;;5072184;28;19909;-51
2022/11/02 11:44:54;;;;;;;;;;;;;;;;;;5072962;28;20100;-51
2022/11/02 11:47:19;;;;;;;;;;;;;;;;;;5071463;28;19909;-48
2022/11/02 11:49:44;;;;;;;;;;;;;;;;;;5071843;28;19962;-52
2022/11/02 11:52:09;;;;;;;;;;;;;;;;;;5072599;28;20305;-50
2022/11/02 11:54:34;;;;;;;;;;;;;;;;;;5072343;28;19923;-49
2022/11/02 11:56:59;;;;;;;;;;;;;;;;;;5072690;28;19912;-50
2022/11/02 11:59:25;;;;;;;;;;;;;;;;;;5070763;28;19908;-49
2022/11/02 12:01:50;;;;;;;;;;;;;;;;;;5072568;28;19995;-50
2022/11/02 12:04:15;;;;;;;;;;;;;;;;;;5072322;28;19927;-50
2022/11/02 12:06:40;;;;;;;;;;;;;;;;;;5072422;28;19952;-51
2022/11/02 12:09:05;;;;;;;;;;;;;;;;;;5071495;28;19918;-50
2022/11/02 12:11:30;;;;;;;;;;;;;;;;;;5072252;28;19957;-50
2022/11/02 12:13:55;;;;;;;;;;;;;;;;;;5072193;28;19909;-50
2022/11/02 12:16:20;;;;;;;;;;;;;;;;;;5072291;28;19963;-51
2022/11/02 12:18:45;;;;;;;;;;;;;;;;;;5070285;28;19916;-49
2022/11/02 12:21:10;;;;;;;;;;;;;;;;;;5072272;28;20680;-50
2022/11/02 12:23:36;;;;;;;;;;;;;;;;;;5071932;28;19904;-50
2022/11/02 12:26:01;;;;;;;;;;;;;;;;;;5072028;28;19978;-50
2022/11/02 12:28:26;;;;;;;;;;;;;;;;;;5072046;28;20331;-50
2022/11/02 12:30:51;;;;;;;;;;;;;;;;;;5071150;28;19923;-50
2022/11/02 12:33:16;;;;;;;;;;;;;;;;;;5072092;28;19905;-50
2022/11/02 12:35:41;;;;;;;;;;;;;;;;;;5071703;28;20012;-51
2022/11/02 12:38:06;;;;;;;;;;;;;;;;;;5071782;28;20252;-50
2022/11/02 12:40:31;;;;;;;;;;;;;;;;;;5070064;28;20007;-50
2022/11/02 12:42:56;;;;;;;;;;;;;;;;;;5071668;28;19938;-51
2022/11/02 12:45:21;;;;;;;;;;;;;;;;;;5071801;28;19908;-50
2022/11/02 12:47:46;;;;;;;;;;;;;;;;;;5071735;28;20397;-49
2022/11/02 12:50:11;;;;;;;;;;;;;;;;;;5068515;28;20351;-51
2022/11/02 12:52:37;;;;;;;;;;;;;;;;;;5070811;28;19952;-50
2022/11/02 12:55:02;;;;;;;;;;;;;;;;;;5071168;28;19923;-51
2022/11/02 12:57:27;;;;;;;;;;;;;;;;;;5071686;28;19905;-51
2022/11/02 12:59:53;;;;;;;;;;;;;;;;;;5071264;28;20378;-50
2022/11/02 13:02:18;;;;;;;;;;;;;;;;;;5069863;28;19912;-51
2022/11/02 13:04:43;;;;;;;;;;;;;;;;;;5071032;28;19911;-51
2022/11/02 13:07:08;;;;;;;;;;;;;;;;;;5070338;28;19908;-48
2022/11/02 13:09:33;;;;;;;;;;;;;;;;;;5071142;28;20382;-49
2022/11/02 13:11:59;;;;;;;;;;;;;;;;;;5070305;28;19918;-49
2022/11/02 13:14:25;;;;;;;;;;;;;;;;;;5071219;28;19908;-49
2022/11/02 13:16:50;;;;;;;;;;;;;;;;;;5071209;28;19953;-50
2022/11/02 13:19:16;;;;;;;;;;;;;;;;;;5070878;28;19932;-49
2022/11/02 13:21:41;;;;;;;;;;;;;;;;;;5070739;28;20355;-48
2022/11/02 13:24:06;;;;;;;;;;;;;;;;;;5069132;28;20577;-49
2022/11/02 13:26:31;;;;;;;;;;;;;;;;;;5070910;28;19919;-50
2022/11/02 13:28:56;;;;;;;;;;;;;;;;;;5070260;28;19904;-50
2022/11/02 13:31:21;;;;;;;;;;;;;;;;;;5069400;28;19908;-49
2022/11/02 13:33:46;;;;;;;;;;;;;;;;;;5069467;28;20477;-48
2022/11/02 13:36:11;;;;;;;;;;;;;;;;;;5070789;28;19908;-49
2022/11/02 13:38:36;;;;;;;;;;;;;;;;;;5070800;28;19908;-50
2022/11/02 13:41:02;;;;;;;;;;;;;;;;;;5070714;28;19904;-50
2022/11/02 13:43:27;;;;;;;;;;;;;;;;;;5070188;28;19990;-50
2022/11/02 13:45:52;;;;;;;;;;;;;;;;;;5070737;28;19916;-51
2022/11/02 13:48:17;;;;;;;;;;;;;;;;;;5071048;28;19905;-50
2022/11/02 13:50:42;;;;;;;;;;;;;;;;;;5070586;28;19930;-49
2022/11/02 13:53:07;;;;;;;;;;;;;;;;;;5070450;28;19911;-51
2022/11/02 13:55:32;;;;;;;;;;;;;;;;;;5068902;28;20327;-50
2022/11/02 13:57:57;;;;;;;;;;;;;;;;;;5070109;28;19923;-49
2022/11/02 14:00:22;;;;;;;;;;;;;;;;;;5070701;28;19904;-50
2022/11/02 14:02:48;;;;;;;;;;;;;;;;;;5070371;28;19901;-50
2022/11/02 14:05:13;;;;;;;;;;;;;;;;;;5068794;28;19912;-50
2022/11/02 14:07:38;;;;;;;;;;;;;;;;;;5070469;28;20355;-50
2022/11/02 14:10:03;;;;;;;;;;;;;;;;;;5069481;28;19916;-50
2022/11/02 14:12:28;;;;;;;;;;;;;;;;;;5070171;28;19974;-50
2022/11/02 14:14:53;;;;;;;;;;;;;;;;;;5070524;28;19996;-49
2022/11/02 14:17:18;;;;;;;;;;;;;;;;;;5073045;28;19974;-50
2022/11/02 14:19:43;;;;;;;;;;;;;;;;;;5074314;28;20358;-50
2022/11/02 14:22:08;;;;;;;;;;;;;;;;;;5073478;28;20010;-50
2022/11/02 14:24:34;;;;;;;;;;;;;;;;;;5068935;28;19930;-51
2022/11/02 14:27:00;;;;;;;;;;;;;;;;;;5074240;28;19995;-50
2022/11/02 14:29:25;;;;;;;;;;;;;;;;;;5074199;28;20310;-50
2022/11/02 14:31:50;;;;;;;;;;;;;;;;;;5074326;28;19911;-50
2022/11/02 14:34:15;;;;;;;;;;;;;;;;;;5076720;28;20320;-50
2022/11/02 14:36:40;;;;;;;;;;;;;;;;;;5094460;28;19904;-50
2022/11/02 14:39:05;;;;;;;;;;;;;;;;;;5093980;28;19915;-51
2022/11/02 14:41:30;;;;;;;;;;;;;;;;;;5092944;28;19919;-50
2022/11/02 14:43:55;;;;;;;;;;;;;;;;;;5073157;28;19908;-50
2022/11/02 14:46:20;;;;;;;;;;;;;;;;;;5067757;28;19963;-51
2022/11/02 14:48:45;;;;;;;;;;;;;;;;;;5054602;28;19908;-50
2022/11/02 14:51:11;;;;;;;;;;;;;;;;;;5073249;28;19916;-51
2022/11/02 14:53:36;;;;;;;;;;;;;;;;;;5073300;28;19915;-50
2022/11/02 14:56:01;;;;;;;;;;;;;;;;;;5066123;28;19920;-49
2022/11/02 14:58:26;;;;;;;;;;;;;;;;;;5071341;28;19915;-50
2022/11/02 15:00:51;;;;;;;;;;;;;;;;;;5060936;28;19913;-50
2022/11/02 15:03:16;;;;;;;;;;;;;;;;;;5060449;28;20465;-50
2022/11/02 15:05:41;;;;;;;;;;;;;;;;;;5070379;28;19912;-50
2022/11/02 15:08:06;;;;;;;;;;;;;;;;;;5069689;28;20031;-50
2022/11/02 15:10:31;;;;;;;;;;;;;;;;;;5064977;28;19912;-51
2022/11/02 15:12:56;;;;;;;;;;;;;;;;;;5068089;28;19942;-50
2022/11/02 15:15:21;;;;;;;;;;;;;;;;;;5067223;28;19938;-51
2022/11/02 15:17:47;;;;;;;;;;;;;;;;;;5069997;28;19916;-51
2022/11/02 15:20:12;;;;;;;;;;;;;;;;;;5070120;28;19909;-50
2022/11/02 15:22:37;;;;;;;;;;;;;;;;;;5068715;28;19966;-50
2022/11/02 15:25:02;;;;;;;;;;;;;;;;;;5077458;28;19912;-50
2022/11/02 15:27:27;;;;;;;;;;;;;;;;;;5090260;28;20380;-51
2022/11/02 15:29:52;;;;;;;;;;;;;;;;;;5069107;28;19916;-50
2022/11/02 15:32:17;;;;;;;;;;;;;;;;;;5070131;28;19908;-50
2022/11/02 15:34:42;;;;;;;;;;;;;;;;;;5080393;28;19974;-50
2022/11/02 15:37:07;;;;;;;;;;;;;;;;;;5071624;28;20798;-50
2022/11/02 15:39:32;;;;;;;;;;;;;;;;;;5074675;28;19908;-49
2022/11/02 15:41:57;;;;;;;;;;;;;;;;;;5089729;28;19904;-49
2022/11/02 15:44:23;;;;;;;;;;;;;;;;;;5081077;28;19918;-50
2022/11/02 15:46:48;;;;;;;;;;;;;;;;;;5079102;28;19957;-51
2022/11/02 15:49:13;;;;;;;;;;;;;;;;;;5088049;28;19916;-51
2022/11/02 15:51:38;;;;;;;;;;;;;;;;;;5068421;28;19912;-50
2022/11/02 15:54:03;;;;;;;;;;;;;;;;;;5068428;28;19908;-51
2022/11/02 15:56:28;;;;;;;;;;;;;;;;;;5069073;28;19969;-51
2022/11/02 15:58:53;;;;;;;;;;;;;;;;;;5068370;28;20290;-51
2022/11/02 16:01:18;;;;;;;;;;;;;;;;;;5062757;28;19912;-51
2022/11/02 16:03:43;;;;;;;;;;;;;;;;;;5061781;28;19920;-50
2022/11/02 16:06:08;;;;;;;;;;;;;;;;;;5058119;28;19913;-50
2022/11/02 16:08:34;;;;;;;;;;;;;;;;;;5061908;28;19999;-50
2022/11/02 16:10:59;;;;;;;;;;;;;;;;;;5058996;28;19916;-50
2022/11/02 16:13:24;;;;;;;;;;;;;;;;;;5056739;28;19909;-49
2022/11/02 16:15:49;;;;;;;;;;;;;;;;;;5071531;28;19965;-49
2022/11/02 16:18:14;;;;;;;;;;;;;;;;;;5071951;28;19995;-50
2022/11/02 16:20:39;;;;;;;;;;;;;;;;;;5068782;28;19916;-49
2022/11/02 16:23:04;;;;;;;;;;;;;;;;;;5067168;28;20309;-50
2022/11/02 16:25:29;;;;;;;;;;;;;;;;;;5070413;28;19991;-50
2022/11/02 16:27:54;;;;;;;;;;;;;;;;;;5052963;28;19921;-50
2022/11/02 16:30:19;;;;;;;;;;;;;;;;;;5059929;28;19923;-50
2022/11/02 16:32:45;;;;;;;;;;;;;;;;;;5064627;28;19908;-51
2022/11/02 16:35:10;;;;;;;;;;;;;;;;;;5071820;28;19909;-50
2022/11/02 16:37:35;;;;;;;;;;;;;;;;;;5088254;28;19904;-49
2022/11/02 16:40:00;;;;;;;;;;;;;;;;;;5078247;28;19965;-49
2022/11/02 16:42:25;;;;;;;;;;;;;;;;;;5066975;28;20358;-47
2022/11/02 16:44:50;;;;;;;;;;;;;;;;;;5071224;28;19916;-48